Time;durP1;ratioP1;P1;durP2;ratioP2;P2;SDS_P1;SDS_P2;PMS_P1;PMS_P2;Temp;Humidity;BMP_temperature;BMP_pressure;BME280_temperature;BME280_humidity;BME280_pressure;Samples;Min_cycle;Max_cycle;Signal;HPM_P1;HPM_P2
2021/08/05 00:01:30;;;;;;;3.10;2.58;;;;;;;17.28;93.59;95201.78;5032975;28;20206;-87
2021/08/05 00:03:58;;;;;;;2.40;2.20;;;;;;;17.29;93.44;95192.19;5032244;28;20517;-86
2021/08/05 00:06:25;;;;;;;2.75;2.30;;;;;;;17.29;92.59;95197.38;5032035;28;20230;-85
2021/08/05 00:08:51;;;;;;;3.03;2.72;;;;;;;17.30;92.77;95196.38;5032579;28;20205;-87
2021/08/05 00:11:18;;;;;;;2.60;2.40;;;;;;;17.26;92.59;95196.03;5032412;28;20202;-87
2021/08/05 00:13:44;;;;;;;2.42;2.22;;;;;;;17.23;93.15;95199.88;5032453;28;20201;-85
2021/08/05 00:16:11;;;;;;;2.17;1.98;;;;;;;17.23;91.42;95191.28;5032404;28;20230;-87
2021/08/05 00:18:37;;;;;;;2.10;2.00;;;;;;;17.23;91.86;95186.06;5032253;28;20264;-84
2021/08/05 00:21:05;;;;;;;2.20;2.00;;;;;;;17.17;93.17;95197.38;5032331;28;20205;-85
2021/08/05 00:23:31;;;;;;;2.25;1.73;;;;;;;17.23;92.70;95189.47;5032748;28;20364;-85
2021/08/05 00:25:58;;;;;;;1.80;1.70;;;;;;;17.25;93.01;95197.03;5032669;28;20233;-85
2021/08/05 00:28:24;;;;;;;2.38;2.17;;;;;;;17.26;93.04;95188.22;5032642;28;20588;-86
2021/08/05 00:30:51;;;;;;;3.05;2.05;;;;;;;17.24;93.11;95187.66;5034686;28;20206;-85
2021/08/05 00:33:17;;;;;;;1.90;1.80;;;;;;;17.23;93.48;95189.47;5036205;28;20285;-86
2021/08/05 00:35:44;;;;;;;2.20;1.98;;;;;;;17.28;93.46;95180.97;5036340;28;20194;-86
2021/08/05 00:38:12;;;;;;;2.00;1.90;;;;;;;17.29;92.84;95179.16;5035931;28;20222;-87
2021/08/05 00:40:38;;;;;;;2.58;1.90;;;;;;;17.26;92.48;95186.41;5036445;28;20202;-85
2021/08/05 00:43:05;;;;;;;3.83;2.28;;;;;;;17.17;93.93;95192.97;5033476;28;20206;-85
2021/08/05 00:45:32;;;;;;;2.00;1.90;;;;;;;17.20;93.73;95187.31;5036286;28;20642;-87
2021/08/05 00:47:58;;;;;;;2.30;2.05;;;;;;;17.23;93.34;95178.25;5036410;28;20234;-85
2021/08/05 00:50:25;;;;;;;2.30;2.10;;;;;;;17.29;93.33;95190.38;5036925;28;20206;-87
2021/08/05 00:52:51;;;;;;;2.05;1.90;;;;;;;17.29;93.22;95190.38;5032360;28;20213;-85
2021/08/05 00:55:20;;;;;;;2.67;2.08;;;;;;;17.29;93.21;95184.38;5035939;28;20205;-86
2021/08/05 00:57:47;;;;;;;1.98;1.88;;;;;;;17.30;92.97;95183.38;5035172;28;20233;-85
2021/08/05 01:00:14;;;;;;;2.58;2.13;;;;;;;17.24;93.92;95177.25;5034710;28;20209;-86
2021/08/05 01:02:49;;;;;;;2.75;2.20;;;;;;;17.24;93.40;95182.44;5034373;28;20264;-86
2021/08/05 01:05:17;;;;;;;2.20;2.00;;;;;;;17.21;94.89;95178.50;5033459;28;20827;-86
2021/08/05 01:07:53;;;;;;;2.05;1.83;;;;;;;17.24;94.37;95169.44;5033371;28;20300;-85
2021/08/05 01:10:25;;;;;;;2.38;2.13;;;;;;;17.27;94.92;95172.38;5034090;28;20197;-86
2021/08/05 01:12:59;;;;;;;1.85;1.73;;;;;;;17.26;94.22;95170.00;5034615;28;20202;-87
2021/08/05 01:15:28;;;;;;;2.60;2.10;;;;;;;17.22;94.35;95164.47;5033656;28;20194;-85
2021/08/05 01:17:57;;;;;;;2.13;1.90;;;;;;;17.20;94.40;95168.31;5032763;28;20234;-86
2021/08/05 01:20:25;;;;;;;2.30;2.10;;;;;;;17.07;97.49;95168.56;5034364;28;20198;-86
2021/08/05 01:23:04;;;;;;;2.58;2.20;;;;;;;17.12;96.45;95166.84;5034993;28;20189;-86
2021/08/05 01:25:44;;;;;;;2.17;2.00;;;;;;;17.18;95.59;95167.75;5034304;28;20233;-87
2021/08/05 01:28:13;;;;;;;4.70;2.10;;;;;;;17.07;97.81;95168.56;5033490;28;20233;-85
2021/08/05 01:30:41;;;;;;;2.15;1.98;;;;;;;17.06;97.44;95178.16;5032908;28;20205;-85
2021/08/05 01:33:09;;;;;;;4.53;2.28;;;;;;;17.00;98.19;95173.84;5033710;28;20209;-86
2021/08/05 01:35:36;;;;;;;2.05;1.95;;;;;;;16.97;98.93;95168.31;5033231;28;20225;-85
2021/08/05 01:38:02;;;;;;;2.38;2.10;;;;;;;16.92;98.23;95171.59;5033577;28;20225;-86
2021/08/05 01:40:30;;;;;;;1.92;1.60;;;;;;;16.95;98.59;95173.72;5033864;28;20203;-87
2021/08/05 01:42:58;;;;;;;2.10;1.70;;;;;;;16.89;100.00;95170.25;5032547;28;20206;-85
2021/08/05 01:45:29;;;;;;;1.13;1.13;;;;;;;16.88;98.65;95167.88;5033708;28;20222;-87
2021/08/05 01:47:57;;;;;;;1.50;1.40;;;;;;;16.85;98.88;95165.72;5033821;28;20230;-87
2021/08/05 01:50:24;;;;;;;2.30;1.10;;;;;;;16.77;99.19;95172.03;5033535;28;20198;-86
2021/08/05 01:52:52;;;;;;;1.23;1.13;;;;;;;16.72;99.08;95166.72;5032393;28;20210;-86
2021/08/05 01:55:19;;;;;;;0.90;0.90;;;;;;;16.68;99.10;95163.00;5033013;28;20244;-86
2021/08/05 01:57:46;;;;;;;0.90;0.90;;;;;;;16.64;99.32;95164.44;5032974;28;20222;-85
2021/08/05 02:00:13;;;;;;;1.00;1.00;;;;;;;16.59;100.00;95164.28;5032322;28;20222;-85
2021/08/05 02:02:41;;;;;;;1.13;1.02;;;;;;;16.65;99.79;95167.84;5032486;28;20202;-85
2021/08/05 02:05:10;;;;;;;0.98;0.98;;;;;;;16.61;100.00;95169.25;5031446;28;20229;-85
2021/08/05 02:07:46;;;;;;;2.90;0.80;;;;;;;16.57;99.40;95164.50;5032359;28;20755;-86
2021/08/05 02:10:19;;;;;;;1.10;1.00;;;;;;;16.62;99.12;95166.44;5032616;28;20324;-85
2021/08/05 02:12:49;;;;;;;1.85;1.00;;;;;;;16.66;98.40;95166.81;5032069;28;20198;-85
2021/08/05 02:15:17;;;;;;;1.05;0.95;;;;;;;16.62;100.00;95174.25;5032554;28;20203;-85
2021/08/05 02:17:45;;;;;;;0.73;0.73;;;;;;;16.67;99.01;95168.41;5032053;28;20237;-87
2021/08/05 02:20:13;;;;;;;1.33;0.85;;;;;;;16.65;98.91;95168.63;5031870;28;20209;-86
2021/08/05 02:22:43;;;;;;;0.80;0.80;;;;;;;16.63;99.25;95164.63;5031879;28;20723;-85
2021/08/05 02:25:11;;;;;;;1.10;1.00;;;;;;;16.65;99.37;95157.44;5032021;28;20222;-85
2021/08/05 02:27:39;;;;;;;1.17;0.90;;;;;;;16.67;99.09;95166.59;5031904;28;20731;-85
2021/08/05 02:30:08;;;;;;;0.80;0.80;;;;;;;16.67;99.15;95161.41;5031914;28;20202;-86
2021/08/05 02:32:35;;;;;;;0.80;0.80;;;;;;;16.68;98.85;95159.59;5032106;28;20212;-86
2021/08/05 02:35:07;;;;;;;1.58;1.00;;;;;;;16.68;98.93;95162.19;5031992;28;20207;-87
2021/08/05 02:37:33;;;;;;;1.20;1.10;;;;;;;16.68;98.73;95160.38;5031954;28;20226;-85
2021/08/05 02:40:00;;;;;;;1.05;1.00;;;;;;;16.69;98.37;95167.19;5032075;28;20700;-86
2021/08/05 02:42:26;;;;;;;1.15;1.05;;;;;;;16.67;98.60;95160.63;5031717;28;20206;-87
2021/08/05 02:44:53;;;;;;;0.90;0.90;;;;;;;16.66;98.18;95151.22;5031545;28;20218;-87
2021/08/05 02:47:21;;;;;;;0.95;0.95;;;;;;;16.60;99.12;95158.06;5031233;28;20233;-85
2021/08/05 02:49:48;;;;;;;0.90;0.90;;;;;;;16.63;99.04;95151.66;5031826;28;20689;-87
2021/08/05 02:52:19;;;;;;;1.00;0.90;;;;;;;16.62;99.11;95157.84;5031364;28;20382;-85
2021/08/05 02:54:46;;;;;;;1.13;1.02;;;;;;;16.62;99.24;95147.47;5030791;28;20201;-86
2021/08/05 02:57:13;;;;;;;1.00;0.90;;;;;;;16.61;99.51;95149.25;5031613;28;20226;-87
2021/08/05 02:59:40;;;;;;;1.00;1.00;;;;;;;16.67;98.08;95148.41;5032494;28;20213;-86
2021/08/05 03:02:07;;;;;;;2.20;1.33;;;;;;;16.68;97.43;95149.19;5031649;28;20213;-86
2021/08/05 03:04:34;;;;;;;1.95;1.10;;;;;;;16.59;98.72;95151.28;5032355;28;20209;-84
2021/08/05 03:07:03;;;;;;;1.30;1.20;;;;;;;16.64;97.42;95148.06;5031838;28;20261;-85
2021/08/05 03:09:31;;;;;;;1.13;1.00;;;;;;;16.69;97.13;95151.56;5032220;28;20205;-85
2021/08/05 03:11:57;;;;;;;1.52;1.15;;;;;;;16.70;96.38;95147.97;5031316;28;20818;-86
2021/08/05 03:14:23;;;;;;;0.98;0.98;;;;;;;16.75;95.87;95142.84;5031410;28;20198;-87
2021/08/05 03:16:50;;;;;;;1.30;1.10;;;;;;;16.77;95.69;95150.44;5031995;28;20229;-86
2021/08/05 03:19:16;;;;;;;3.75;1.20;;;;;;;16.73;95.67;95155.31;5032084;28;20225;-85
2021/08/05 03:21:43;;;;;;;1.58;1.48;;;;;;;16.69;96.29;95158.59;5031272;28;20202;-85
2021/08/05 03:24:09;;;;;;;1.90;1.50;;;;;;;16.69;96.09;95159.38;5031305;28;20201;-85
2021/08/05 03:26:37;;;;;;;1.77;1.58;;;;;;;16.64;96.90;95148.84;5031559;28;20225;-85
2021/08/05 03:29:03;;;;;;;2.20;2.05;;;;;;;16.63;96.67;95160.25;5031438;28;20614;-85
2021/08/05 03:31:30;;;;;;;1.92;1.83;;;;;;;16.66;96.44;95151.22;5031473;28;20553;-87
2021/08/05 03:33:56;;;;;;;2.17;2.03;;;;;;;16.63;97.01;95151.66;5032158;28;20197;-87
2021/08/05 03:36:23;;;;;;;4.07;1.98;;;;;;;16.57;98.83;95155.91;5032380;28;20570;-87
2021/08/05 03:38:49;;;;;;;2.05;1.70;;;;;;;16.63;97.55;95151.66;5032859;28;20206;-86
2021/08/05 03:41:18;;;;;;;2.35;2.15;;;;;;;16.62;96.83;95152.66;5032347;28;20206;-85
2021/08/05 03:43:46;;;;;;;2.47;2.00;;;;;;;16.61;96.79;95145.88;5032220;28;20214;-86
2021/08/05 03:46:13;;;;;;;2.58;2.03;;;;;;;16.59;96.95;95146.88;5032765;28;20222;-87
2021/08/05 03:48:40;;;;;;;2.25;2.05;;;;;;;16.59;97.70;95154.69;5032731;28;20206;-86
2021/08/05 03:51:07;;;;;;;2.50;2.30;;;;;;;16.58;97.23;95154.91;5032141;28;20202;-85
2021/08/05 03:53:34;;;;;;;2.10;2.00;;;;;;;16.51;98.70;95152.44;5032203;28;20205;-85
2021/08/05 03:56:00;;;;;;;3.15;2.13;;;;;;;16.54;97.43;95156.41;5032032;28;20202;-86
2021/08/05 03:58:26;;;;;;;2.20;2.00;;;;;;;16.57;97.99;95155.91;5032679;28;20709;-85
2021/08/05 04:00:54;;;;;;;2.40;2.20;;;;;;;16.53;98.64;95160.00;5032169;28;20206;-85
2021/08/05 04:03:21;;;;;;;2.65;2.45;;;;;;;16.49;97.83;95153.66;5032526;28;20213;-84
2021/08/05 04:05:47;;;;;;;2.33;2.13;;;;;;;16.54;97.87;95149.38;5034910;28;20234;-86
2021/08/05 04:08:14;;;;;;;2.80;2.17;;;;;;;16.55;98.19;95150.16;5036025;28;20229;-85
2021/08/05 04:10:40;;;;;;;2.75;2.55;;;;;;;16.56;97.82;95157.72;5036763;28;20206;-84
2021/08/05 04:13:07;;;;;;;3.75;2.70;;;;;;;16.61;97.40;95146.66;5035169;28;20198;-87
2021/08/05 04:15:33;;;;;;;4.07;2.35;;;;;;;16.65;97.75;95147.84;5035602;28;20606;-87
2021/08/05 04:18:01;;;;;;;4.15;2.80;;;;;;;16.72;96.45;95139.94;5035707;28;20268;-86
2021/08/05 04:20:27;;;;;;;2.50;2.30;;;;;;;16.77;96.49;95137.44;5036040;28;20205;-88
2021/08/05 04:22:54;;;;;;;3.00;2.70;;;;;;;16.87;95.86;95143.69;5035272;28;20202;-86
2021/08/05 04:25:20;;;;;;;3.20;2.80;;;;;;;16.80;95.01;95142.19;5035525;28;20221;-87
2021/08/05 04:27:47;;;;;;;4.93;2.75;;;;;;;16.80;96.11;95142.19;5035239;28;20229;-84
2021/08/05 04:30:14;;;;;;;3.03;2.80;;;;;;;16.86;95.52;95144.69;5035989;28;20209;-86
2021/08/05 04:32:42;;;;;;;3.17;2.65;;;;;;;16.90;94.45;95138.03;5034892;28;20194;-86
2021/08/05 04:35:12;;;;;;;2.53;2.33;;;;;;;16.95;94.79;95137.31;5034606;28;20264;-87
2021/08/05 04:37:48;;;;;;;3.03;2.47;;;;;;;16.96;94.23;95132.91;5034977;28;20229;-87
2021/08/05 04:40:14;;;;;;;3.90;2.47;;;;;;;17.01;94.55;95144.22;5034465;28;20208;-86
2021/08/05 04:42:41;;;;;;;2.72;2.50;;;;;;;17.01;94.49;95136.44;5034277;28;20213;-84
2021/08/05 04:45:08;;;;;;;2.97;2.38;;;;;;;16.98;94.29;95130.88;5034928;28;20603;-86
2021/08/05 04:47:34;;;;;;;6.32;2.72;;;;;;;16.96;93.16;95138.91;5032653;28;20218;-86
2021/08/05 04:50:01;;;;;;;4.68;2.80;;;;;;;16.92;93.44;95136.00;5028634;28;20222;-87
2021/08/05 04:52:31;;;;;;;3.80;2.55;;;;;;;16.91;93.73;95126.59;5030761;28;20209;-90
2021/08/05 04:54:57;;;;;;;2.60;2.40;;;;;;;16.93;93.30;95127.16;5030107;28;20281;-88
2021/08/05 04:57:24;;;;;;;3.28;2.67;;;;;;;16.92;93.69;95133.41;5030744;28;21627;-88
2021/08/05 04:59:53;;;;;;;4.60;2.90;;;;;;;16.81;94.45;95128.97;5031835;28;20285;-89
2021/08/05 05:02:20;;;;;;;2.90;2.60;;;;;;;16.78;94.88;95134.59;5031292;28;20229;-87
2021/08/05 05:04:46;;;;;;;3.13;2.63;;;;;;;16.75;94.82;95139.47;5030517;28;20206;-86
2021/08/05 05:07:12;;;;;;;2.60;2.40;;;;;;;16.72;95.65;95126.94;5031335;28;20277;-87
2021/08/05 05:09:40;;;;;;;3.55;2.70;;;;;;;16.67;95.86;95138.00;5031368;28;20206;-88
2021/08/05 05:12:08;;;;;;;2.80;2.60;;;;;;;16.58;96.43;95141.91;5031604;28;20205;-89
2021/08/05 05:14:40;;;;;;;2.80;2.50;;;;;;;16.56;96.73;95131.75;5030575;28;20202;-89
2021/08/05 05:17:20;;;;;;;2.78;2.30;;;;;;;16.57;97.18;95128.13;5029495;28;20635;-88
2021/08/05 05:19:53;;;;;;;2.28;2.05;;;;;;;16.54;96.32;95128.59;5030992;28;20209;-89
2021/08/05 05:28:48;;;;;;;2.50;2.30;;;;;;;16.44;97.14;95137.94;5129730;23;20264;-88
2021/08/05 05:31:21;;;;;;;8.43;7.63;;;;;;;16.38;97.45;95141.44;5043129;28;20611;-88
2021/08/05 05:34:00;;;;;;;7.20;6.50;;;;;;;16.46;96.55;95148.91;5050243;28;20216;-88
2021/08/05 05:46:46;;;;;;;3.08;2.13;;;;;;;16.49;96.98;95143.28;4940604;28;20280;-87
2021/08/05 05:49:37;;;;;;;3.50;2.20;;;;;;;16.44;97.15;95146.53;4951669;28;20201;-87
2021/08/05 05:52:14;;;;;;;2.13;1.80;;;;;;;16.39;96.99;95151.59;5031141;28;20195;-89
2021/08/05 05:54:50;;;;;;;2.20;2.00;;;;;;;16.44;97.36;95154.31;5030208;28;20267;-90
2021/08/05 05:57:34;;;;;;;1.88;1.77;;;;;;;16.47;97.04;95153.88;5030506;28;20280;-88
2021/08/05 06:12:49;;;;;;;2.40;2.20;;;;;;;16.39;98.18;95162.00;5316576;23;20235;-89
2021/08/05 06:54:47;;;;;;;7.03;6.32;;;;;;;16.40;97.47;95166.19;4885324;29;20923;-88
2021/08/05 07:01:21;;;;;;;3.10;2.35;;;;;;;16.49;97.30;95159.66;4967980;28;20232;-89
2021/08/05 07:16:35;;;;;;;3.30;2.33;;;;;;;16.59;97.38;95162.47;5032640;28;20224;-88
2021/08/05 07:19:31;;;;;;;2.50;2.13;;;;;;;16.58;97.36;95165.31;5056565;28;20217;-91
2021/08/05 07:22:03;;;;;;;4.05;2.35;;;;;;;16.54;96.21;95164.97;5032933;28;20229;-88
2021/08/05 07:24:30;;;;;;;2.45;1.98;;;;;;;16.61;96.74;95166.66;5050211;28;20216;-88
2021/08/05 07:26:56;;;;;;;2.75;2.47;;;;;;;16.61;96.72;95164.06;5072220;28;20244;-89
2021/08/05 07:35:52;;;;;;;2.28;2.08;;;;;;;16.68;96.46;95170.78;5033085;28;20204;-88
2021/08/05 07:38:39;;;;;;;3.85;2.38;;;;;;;16.73;97.01;95157.13;5051727;28;20200;-88
2021/08/05 07:41:52;;;;;;;;;;;;;;;;;;;;;
2021/08/05 07:44:54;;;;;;;;;;;;;;;;;;;;;
2021/08/05 07:47:22;;;;;;;2.90;2.60;;;;;;;16.72;97.33;95174.53;5054457;28;20220;-88
2021/08/05 07:50:16;;;;;;;3.63;2.58;;;;;;;16.73;97.78;95173.50;5072091;28;20193;-88
2021/08/05 07:53:11;;;;;;;3.40;2.67;;;;;;;16.79;96.97;95162.19;5048705;28;20647;-88
2021/08/05 07:55:40;;;;;;;2.70;2.50;;;;;;;16.83;97.72;95165.94;5051670;28;20702;-88
2021/08/05 07:58:10;;;;;;;5.97;4.47;;;;;;;16.86;97.28;95167.31;5051356;28;20228;-88
2021/08/05 08:00:39;;;;;;;5.07;3.65;;;;;;;16.83;97.18;95165.16;5053495;28;20213;-89
2021/08/05 08:03:08;;;;;;;5.25;3.25;;;;;;;16.77;97.73;95166.81;5051309;28;20232;-88
2021/08/05 08:06:04;;;;;;;5.07;3.35;;;;;;;16.88;97.55;95170.47;5050818;28;20233;-89
2021/08/05 08:08:36;;;;;;;4.65;3.40;;;;;;;16.93;96.49;95173.97;5051613;28;20201;-88
2021/08/05 08:11:04;;;;;;;3.47;3.17;;;;;;;16.96;97.34;95167.50;5049840;28;20255;-89
2021/08/05 08:13:36;;;;;;;4.63;3.58;;;;;;;17.02;96.67;95173.63;5050571;28;20227;-88
2021/08/05 08:16:05;;;;;;;4.30;3.90;;;;;;;16.99;97.57;95166.28;5051054;28;20202;-88
2021/08/05 08:18:44;;;;;;;4.75;3.83;;;;;;;16.94;96.49;95179.94;5067097;28;20642;-89
2021/08/05 08:24:25;;;;;;;4.10;3.70;;;;;;;16.96;96.66;95175.31;5000186;28;20205;-89
2021/08/05 08:27:05;;;;;;;5.40;3.47;;;;;;;17.09;97.32;95177.72;5052020;28;20751;-89
2021/08/05 08:29:54;;;;;;;4.22;3.25;;;;;;;17.20;96.77;95183.91;5051247;28;20239;-88
2021/08/05 08:32:40;;;;;;;3.90;3.47;;;;;;;17.21;95.88;95178.50;5051320;28;20201;-89
2021/08/05 08:35:08;;;;;;;3.90;3.50;;;;;;;17.25;95.47;95171.81;5051545;28;20205;-88
2021/08/05 08:37:45;;;;;;;3.80;3.28;;;;;;;17.31;96.84;95182.34;5051086;28;20821;-88
2021/08/05 08:40:17;;;;;;;13.82;12.38;;;;;;;17.37;96.73;95186.63;5051177;28;20205;-89
2021/08/05 08:42:50;;;;;;;4.60;4.13;;;;;;;17.33;95.20;95190.69;5052543;28;20225;-89
2021/08/05 08:45:17;;;;;;;5.85;3.88;;;;;;;17.43;95.52;95183.09;5051465;28;20206;-88
2021/08/05 08:47:55;;;;;;;4.63;3.90;;;;;;;17.42;97.75;95177.13;5050376;28;20704;-88
2021/08/05 08:50:30;;;;;;;4.85;4.03;;;;;;;17.47;95.24;95173.84;5051090;28;20212;-89
2021/08/05 08:53:14;;;;;;;4.22;3.83;;;;;;;17.61;96.03;95173.34;5054123;28;20284;-88
2021/08/05 08:55:51;;;;;;;4.82;4.43;;;;;;;17.79;94.53;95169.81;5054999;28;20201;-88
2021/08/05 08:58:19;;;;;;;4.53;4.07;;;;;;;17.85;92.85;95179.31;5055204;28;20275;-88
2021/08/05 09:00:50;;;;;;;4.13;3.75;;;;;;;17.93;92.58;95178.13;5066127;28;20678;-88
2021/08/05 09:03:30;;;;;;;7.68;4.80;;;;;;;18.02;92.47;95174.16;5055548;28;20288;-88
2021/08/05 09:05:57;;;;;;;6.78;3.80;;;;;;;18.23;91.55;95175.31;5054094;28;20225;-89
2021/08/05 09:08:28;;;;;;;3.72;3.42;;;;;;;18.57;90.67;95176.94;5050758;28;20433;-89
2021/08/05 09:10:58;;;;;;;3.92;3.50;;;;;;;18.74;89.72;95174.38;5059374;28;20358;-88
2021/08/05 09:13:25;;;;;;;4.05;3.75;;;;;;;18.73;86.40;95174.59;5076697;28;20205;-89
2021/08/05 09:15:51;;;;;;;7.72;6.97;;;;;;;18.77;87.18;95175.72;5076700;28;20243;-88
2021/08/05 09:18:47;;;;;;;5.18;3.85;;;;;;;18.69;88.30;95171.66;5075915;28;20346;-88
2021/08/05 09:21:16;;;;;;;4.65;4.20;;;;;;;18.73;88.47;95166.78;5074933;28;20201;-88
2021/08/05 09:24:06;;;;;;;3.30;3.00;;;;;;;18.94;86.23;95163.44;5076024;28;20205;-88
2021/08/05 09:26:38;;;;;;;4.93;3.75;;;;;;;19.13;84.66;95170.00;5073116;28;20216;-88
2021/08/05 09:29:10;;;;;;;3.75;3.30;;;;;;;19.20;85.88;95160.19;5075377;28;20208;-89
2021/08/05 09:31:42;;;;;;;3.63;3.33;;;;;;;19.31;85.01;95161.88;5075338;28;20239;-88
2021/08/05 09:37:38;;;;;;;3.42;3.10;;;;;;;19.60;78.72;95154.72;5071006;28;20224;-89
2021/08/05 09:40:18;;;;;;;3.25;2.95;;;;;;;20.13;77.61;95157.66;5059994;28;20281;-87
2021/08/05 09:43:01;;;;;;;3.50;3.20;;;;;;;20.42;70.01;95147.75;5060267;28;20571;-88
2021/08/05 09:45:46;;;;;;;4.07;3.28;;;;;;;20.64;68.19;95151.06;5073725;28;20197;-88
2021/08/05 09:52:15;;;;;;;3.80;2.67;;;;;;;20.26;73.85;95138.94;5055153;28;20197;-89
2021/08/05 09:54:47;;;;;;;3.40;3.10;;;;;;;20.25;75.48;95147.81;5056496;28;20209;-88
2021/08/05 09:57:25;;;;;;;2.65;2.45;;;;;;;20.39;71.39;95133.34;5075342;28;20315;-88
2021/08/05 09:59:55;;;;;;;4.90;2.63;;;;;;;20.56;72.19;95141.09;5061634;28;20279;-89
2021/08/05 10:02:24;;;;;;;2.97;2.78;;;;;;;20.41;70.40;95133.09;5074387;28;20718;-87
2021/08/05 10:04:51;;;;;;;3.05;2.75;;;;;;;20.15;72.68;95143.31;5075306;28;20208;-88
2021/08/05 10:07:20;;;;;;;2.83;2.50;;;;;;;19.93;71.49;95138.09;5066772;28;20248;-89
2021/08/05 10:09:57;;;;;;;3.00;2.70;;;;;;;19.75;73.15;95141.03;5055750;28;20210;-89
2021/08/05 10:12:30;;;;;;;3.00;2.70;;;;;;;19.58;74.29;95141.13;5054994;28;20212;-87
2021/08/05 10:15:08;;;;;;;4.03;2.55;;;;;;;19.42;74.75;95133.31;5055376;28;20862;-89
2021/08/05 10:17:36;;;;;;;3.35;2.85;;;;;;;19.23;77.58;95133.59;5055969;28;20225;-88
2021/08/05 10:20:05;;;;;;;2.75;2.55;;;;;;;19.10;80.48;95138.34;5054764;28;20224;-88
2021/08/05 10:22:32;;;;;;;4.18;3.00;;;;;;;19.00;80.94;95138.22;5054906;28;20205;-89
2021/08/05 10:25:00;;;;;;;3.10;2.80;;;;;;;18.96;82.57;95137.91;5063269;28;20193;-88
2021/08/05 10:27:31;;;;;;;3.25;2.95;;;;;;;18.93;83.69;95135.78;5053611;28;20324;-88
2021/08/05 10:29:59;;;;;;;4.40;3.03;;;;;;;18.84;84.58;95134.63;5051572;28;20198;-88
2021/08/05 10:32:33;;;;;;;3.15;2.88;;;;;;;18.82;84.17;95136.66;5051713;28;20200;-88
2021/08/05 10:35:01;;;;;;;4.80;2.83;;;;;;;18.76;84.41;95127.19;5051399;28;20216;-88
2021/08/05 10:37:27;;;;;;;3.33;3.03;;;;;;;18.77;84.99;95134.78;5051006;28;20217;-88
2021/08/05 10:39:55;;;;;;;7.25;6.55;;;;;;;18.81;84.81;95125.44;5051611;28;20248;-88
2021/08/05 10:42:22;;;;;;;4.78;4.38;;;;;;;18.79;85.83;95126.72;5050972;28;20696;-88
2021/08/05 10:44:51;;;;;;;3.83;3.53;;;;;;;18.82;84.86;95134.06;5051004;28;20201;-87
2021/08/05 10:47:20;;;;;;;3.38;3.08;;;;;;;18.79;86.00;95130.13;5051615;28;20611;-88
2021/08/05 10:49:49;;;;;;;3.95;3.13;;;;;;;18.83;86.10;95133.03;5050684;28;20208;-87
2021/08/05 10:52:38;;;;;;;3.40;2.92;;;;;;;18.89;86.88;95129.44;5050960;28;20197;-87
2021/08/05 10:55:05;;;;;;;3.38;3.00;;;;;;;19.00;85.72;95120.75;5050715;28;20664;-87
2021/08/05 10:57:32;;;;;;;3.50;3.20;;;;;;;19.21;84.35;95127.84;5051699;28;20217;-88
2021/08/05 11:00:08;;;;;;;4.03;2.78;;;;;;;19.77;81.81;95120.69;5069958;28;20207;-87
2021/08/05 11:02:48;;;;;;;3.78;2.80;;;;;;;19.71;78.51;95120.88;5069073;28;20266;-88
2021/08/05 11:05:41;;;;;;;3.35;2.70;;;;;;;19.61;78.30;95111.91;5061296;28;20208;-88
2021/08/05 11:08:23;;;;;;;3.33;2.55;;;;;;;19.45;78.71;95102.25;5079405;28;20259;-88
2021/08/05 11:11:31;;;;;;;2.95;2.67;;;;;;;19.40;80.36;95110.06;5066989;28;20219;-88
2021/08/05 11:14:54;;;;;;;3.28;2.95;;;;;;;19.33;81.42;95106.81;5048406;28;20284;-87
2021/08/05 11:17:22;;;;;;;6.30;5.57;;;;;;;19.27;82.73;95108.56;4968317;28;20220;-87
2021/08/05 11:20:15;;;;;;;24.80;22.27;;;;;;;19.10;86.52;95118.28;4984220;28;20200;-88
2021/08/05 11:22:42;;;;;;;4.53;3.50;;;;;;;19.05;86.88;95115.59;5069615;28;20201;-88
2021/08/05 11:25:13;;;;;;;3.35;3.05;;;;;;;19.16;87.44;95111.31;5069025;28;20201;-88
2021/08/05 11:28:20;;;;;;;3.65;2.80;;;;;;;19.25;85.30;95102.81;5070478;28;20320;-87
2021/08/05 11:33:53;;;;;;;2.55;2.35;;;;;;;19.35;83.08;95096.16;5028538;28;20198;-88
2021/08/05 11:36:36;;;;;;;2.65;2.40;;;;;;;19.43;82.79;95104.34;5067535;28;20228;-87
2021/08/05 11:39:22;;;;;;;3.25;2.75;;;;;;;19.39;80.65;95095.41;5071166;28;20224;-87
2021/08/05 11:42:19;;;;;;;4.90;2.72;;;;;;;19.36;79.95;95093.28;5070753;28;20232;-88
2021/08/05 11:45:30;;;;;;;2.65;2.35;;;;;;;19.41;80.62;95101.19;5023965;28;20717;-88
2021/08/05 11:48:09;;;;;;;3.15;2.40;;;;;;;19.35;77.52;95089.09;5066004;28;20225;-87
2021/08/05 11:50:49;;;;;;;2.60;2.40;;;;;;;19.39;76.92;95086.81;5059101;28;20416;-88
2021/08/05 11:53:30;;;;;;;2.45;2.25;;;;;;;19.62;77.74;95086.56;5050004;28;20205;-87
2021/08/05 11:55:57;;;;;;;2.45;2.15;;;;;;;19.78;75.06;95083.09;5062763;28;20196;-88
2021/08/05 11:58:25;;;;;;;3.88;2.30;;;;;;;19.84;73.61;95082.09;5070762;28;20200;-88
2021/08/05 12:00:52;;;;;;;2.47;2.25;;;;;;;19.95;73.93;95075.16;5051494;28;20255;-87
2021/08/05 12:03:33;;;;;;;3.42;3.13;;;;;;;20.15;72.13;95072.72;5049412;28;20233;-88
2021/08/05 12:06:45;;;;;;;3.10;2.90;;;;;;;20.30;71.53;95067.63;5050211;28;20732;-88
2021/08/05 12:09:15;;;;;;;3.20;2.22;;;;;;;20.46;70.93;95062.53;5037703;28;20251;-88
2021/08/05 12:11:41;;;;;;;3.03;2.30;;;;;;;20.68;70.39;95057.97;5029023;28;20214;-87
2021/08/05 12:14:14;;;;;;;2.40;2.20;;;;;;;20.77;70.48;95058.28;5028241;28;20264;-87
2021/08/05 12:16:43;;;;;;;3.20;1.98;;;;;;;20.77;70.26;95047.81;5029026;28;20297;-88
2021/08/05 12:19:12;;;;;;;3.22;2.00;;;;;;;20.84;69.53;95049.16;5028733;28;20224;-87
2021/08/05 12:21:51;;;;;;;2.50;2.30;;;;;;;20.63;68.71;95047.47;5029476;28;20202;-88
2021/08/05 12:24:18;;;;;;;2.65;2.17;;;;;;;20.88;68.14;95045.00;5029603;28;20264;-87
2021/08/05 12:26:59;;;;;;;2.75;1.90;;;;;;;21.16;66.20;95036.00;5072263;28;20224;-89
2021/08/05 12:29:31;;;;;;;3.85;2.28;;;;;;;21.26;66.95;95043.13;5073108;28;20280;-87
2021/08/05 12:32:09;;;;;;;2.42;1.80;;;;;;;21.59;66.06;95034.81;5072616;28;20295;-87
2021/08/05 12:37:41;;;;;;;2.13;1.67;;;;;;;21.81;63.95;95028.59;5068708;28;20216;-87
2021/08/05 12:40:09;;;;;;;1.90;1.60;;;;;;;22.05;63.45;95027.06;5072180;28;20205;-87
2021/08/05 12:42:52;;;;;;;1.90;1.60;;;;;;;22.16;62.45;95019.97;5072768;28;20244;-87
2021/08/05 12:45:24;;;;;;;2.25;1.63;;;;;;;22.01;63.74;95018.94;5073378;28;20197;-87
2021/08/05 12:47:50;;;;;;;1.58;1.48;;;;;;;21.71;59.39;95013.66;5074403;28;20225;-88
2021/08/05 12:50:24;;;;;;;1.83;1.73;;;;;;;21.92;59.71;95010.00;5065397;28;20288;-87
2021/08/05 12:52:52;;;;;;;4.85;4.38;;;;;;;22.14;61.98;95003.72;5053649;28;20225;-87
2021/08/05 12:55:19;;;;;;;1.60;1.50;;;;;;;22.01;59.39;95005.81;5052116;28;20228;-87
2021/08/05 12:57:45;;;;;;;1.40;1.30;;;;;;;21.82;60.37;95012.59;5051838;28;20240;-87
2021/08/05 13:00:26;;;;;;;1.77;1.67;;;;;;;21.66;60.21;95011.78;5067319;28;20651;-87
2021/08/05 13:03:01;;;;;;;1.58;1.48;;;;;;;21.50;60.80;95004.97;5072489;28;20608;-87
2021/08/05 13:05:28;;;;;;;1.13;1.13;;;;;;;21.32;60.43;95008.06;5071598;28;20586;-88
2021/08/05 13:07:56;;;;;;;1.60;1.50;;;;;;;21.17;62.89;95000.09;5072233;28;20240;-87
2021/08/05 13:10:27;;;;;;;1.70;1.60;;;;;;;21.38;61.69;95001.75;5070923;28;20601;-87
2021/08/05 13:13:01;;;;;;;1.40;1.30;;;;;;;21.61;61.61;94997.88;5072704;28;20213;-88
2021/08/05 13:15:34;;;;;;;1.65;1.38;;;;;;;22.05;61.01;95004.25;5072854;28;20200;-87
2021/08/05 13:18:01;;;;;;;1.05;1.00;;;;;;;22.11;56.86;94994.56;5074242;28;20221;-87
2021/08/05 13:20:29;;;;;;;3.30;3.00;;;;;;;21.90;56.37;94995.56;5073304;28;20203;-88
2021/08/05 13:22:59;;;;;;;1.73;1.63;;;;;;;22.03;55.99;94987.22;5073003;28;20228;-88
2021/08/05 13:25:39;;;;;;;1.02;1.00;;;;;;;22.14;56.37;94993.22;5073050;28;20304;-87
2021/08/05 13:28:10;;;;;;;1.00;1.00;;;;;;;22.37;56.14;94990.84;5072994;28;20256;-87
2021/08/05 13:30:39;;;;;;;1.30;1.10;;;;;;;22.62;54.61;94990.03;5072188;28;20205;-87
2021/08/05 13:33:25;;;;;;;1.30;1.08;;;;;;;22.73;54.06;94986.31;5071519;28;20197;-87
2021/08/05 13:35:52;;;;;;;2.13;1.20;;;;;;;22.65;56.12;94986.88;5073290;28;20254;-88
2021/08/05 13:38:23;;;;;;;1.65;0.90;;;;;;;22.80;54.62;94980.03;5072093;28;20666;-86
2021/08/05 13:40:51;;;;;;;0.95;0.95;;;;;;;23.03;55.13;94980.22;5072305;28;20208;-86
2021/08/05 13:43:18;;;;;;;2.17;1.00;;;;;;;23.21;53.10;94978.03;5079653;28;20284;-87
2021/08/05 13:45:47;;;;;;;1.38;1.20;;;;;;;23.30;51.71;94981.66;5072099;28;20203;-88
2021/08/05 13:48:16;;;;;;;0.90;0.90;;;;;;;23.35;51.65;94987.69;5073037;28;20221;-87